Jones, Michigan
Current Conditions -  °F | °C
As of 11:15 PM on Monday 22 Dec 2014 (Local Time) from KHAI Reporting Station
Haze Haze  
Wind Chill: 32°   Ceiling: 3600
Heat Index: 37°   Visibility: 5mi
Dew Point: 35°   Wind: 7mph
Humidity: 91%   Direction: 120°ESE
Pressure: 29.74"   Gusts: NA
Location:  41.9°N, 85.8°W
Report Text: KHAI 230415Z AUTO 12006KT 5SM BR BKN036 OVC048 03/02 A2974 RMK AO2 T00280015
Loading
Personal Weather Stations






























Interactive Weather Map New forecast layout! Learn more

10-Day Weather Forecast

Advertisements
Track Severe Weather on mobile